Date,TemperatureHighF,TemperatureAvgF,TemperatureLowF,DewpointHighF,DewpointAvgF,DewpointLowF,HumidityHigh,HumidityAvg,HumidityLow,PressureMaxIn,PressureMinIn,WindSpeedMaxMPH,WindSpeedAvgMPH,GustSpeedMaxMPH,PrecipitationSumIn
2013-11-1,71.2,61.1,47.5,63.6,54.4,44.1,100,81,46,29.75,29.44,16,2,19,0.00
2013-11-2,65.3,49.6,40.8,49.1,44.3,40.2,99,84,51,29.79,29.62,12,0,14,0.00
2013-11-3,45.2,38.5,28.4,42.8,30.8,19.5,97,74,59,30.52,29.79,11,1,14,0.00
2013-11-4,44.4,30.8,21.3,24.2,20.7,17.4,95,69,36,30.71,30.52,10,1,11,0.00
2013-11-5,53.4,39.8,26.2,39.4,32.2,22.0,90,75,56,30.72,30.49,9,1,12,0.00
2013-11-6,57.1,49.1,41.6,46.7,43.3,37.7,92,81,66,30.51,30.05,14,1,14,0.00
2013-11-7,57.1,48.8,34.9,56.4,44.8,30.0,98,87,66,30.05,29.76,9,0,11,0.00
2013-11-8,46.7,39.1,30.2,34.6,29.9,27.5,94,71,51,30.20,29.93,14,1,16,0.00
2013-11-9,47.6,41.5,37.1,31.9,29.3,26.6,74,62,49,30.28,29.99,11,1,12,0.00
2013-11-10,51.0,44.4,38.8,40.4,34.1,28.8,81,67,51,30.03,29.83,21,2,21,0.00
2013-11-11,50.6,45.3,36.7,34.3,31.2,28.6,73,58,47,30.19,29.95,11,2,15,0.00
2013-11-12,47.3,35.3,28.9,36.0,21.6,14.7,70,57,43,30.31,29.95,12,2,14,0.00
2013-11-13,38.3,29.7,25.1,19.2,14.9,11.9,70,55,35,30.41,30.26,11,1,12,0.00
2013-11-14,55.4,38.0,27.4,21.7,19.2,15.4,74,51,21,30.27,30.09,13,2,14,0.00
2013-11-15,60.7,41.9,26.7,26.7,21.9,18.0,74,48,23,30.25,30.13,9,1,11,0.00
2013-11-16,63.3,46.2,34.7,39.9,34.4,23.6,91,66,37,30.34,30.23,8,1,10,0.00
2013-11-17,57.6,47.1,37.8,57.5,46.4,35.4,100,98,90,30.29,29.73,9,0,9,0.00
2013-11-18,62.9,55.9,45.8,59.5,43.6,27.8,99,66,40,29.79,29.53,18,3,20,0.00
2013-11-19,45.8,38.4,25.4,33.0,25.3,20.3,83,60,50,30.41,29.78,16,2,19,0.00
2013-11-20,40.4,28.0,20.7,21.5,18.4,15.5,90,69,37,30.68,30.41,10,1,12,0.00
2013-11-21,44.1,31.4,16.4,32.3,23.8,15.0,95,75,52,30.71,30.41,6,0,7,0.00
2013-11-22,52.4,45.1,37.8,47.9,41.9,31.5,99,89,78,30.41,29.90,10,1,10,0.00
2013-11-23,50.6,38.0,25.6,45.1,24.4,7.2,82,59,42,30.08,29.89,19,2,19,0.00
2013-11-24,28.5,23.0,20.0,15.8,6.6,0.0,75,50,31,30.38,30.02,19,4,24,0.00
2013-11-25,36.1,24.9,12.7,16.7,13.2,7.7,87,62,41,30.52,30.32,12,2,13,0.00
2013-11-26,32.4,30.6,26.5,31.3,26.0,14.6,98,84,51,30.37,29.90,8,1,10,0.00
2013-11-27,43.9,37.4,31.8,43.8,34.9,21.9,100,91,64,29.90,29.39,15,1,15,0.00
2013-11-28,32.7,27.1,20.3,22.1,15.2,10.8,81,61,43,30.51,29.72,14,2,17,0.00
2013-11-29,35.6,26.4,19.3,21.6,16.9,10.4,87,68,45,30.80,30.51,7,0,9,0.00
2013-11-30,31.6,23.2,11.8,22.7,14.8,10.1,93,72,45,30.86,30.43,6,0,7,0.00